UATG/GUW METAR and TAF weather

Enter ICAO airport designator
Station Type Date Time Source
UATG METAR 2019/07/17 18:30 UTC NOAA

UATG 171830Z 34005MPS CAVOK 28/13 Q1003 R32/CLRD70 NOSIG RMK QFE754/1005


Station Type Date Time Source
UATG Decoded METAR 2019/07/17 18:30 UTC NOAA

Station name not available
Jul 17, 2019 - 02:30 PM EDT / 2019.07.17 1830 UTC
Wind: from the NNW (340 degrees) at 11 MPH (10 KT):0
Visibility: greater than 7 mile(s):0
Temperature: 82 F (28 C)
Dew Point: 55 F (13 C)
Relative Humidity: 39%
Pressure (altimeter): 29.62 in. Hg (1003 hPa)
ob: UATG 171830Z 34005MPS CAVOK 28/13 Q1003 R32/CLRD70 NOSIG RMK QFE754/1005
cycle: 18

Station Type Date Time Source
UATG TAF 2019/07/17 18:18 UTC NOAA

TAF UATG 171700Z 1718/1818 30005MPS 9999 SCT033 TX38/1810Z TN24/1801Z
BECMG 1805/1806 02008MPS

Example: see airport list